Matheson, Canada
Current Conditions -  °F | °C
As of 6:05 AM on Tuesday 21 Oct 2014 (Local Time) from CYTS Reporting Station
Light Snow Light Snow  
Wind Chill: 23°   Ceiling: 2100
Heat Index: 30°   Visibility: 15mi
Dew Point: 28°   Wind: 7mph
Humidity: 93%   Direction: 360°N
Pressure: 30.15"   Gusts: NA
Location:  48.53°N, 80.47°W
Report Text: CYTS 211005Z 36006KT 15SM -SN OVC021 M01/M02 A3015 RMK SC8 SLP226
Loading
Personal Weather Stations






























Interactive Weather Map
Tropical Storm Tracking
New forecast layout! Learn more

10-Day Weather Forecast

Advertisements
Track Severe Weather on mobile